createdAt,value
2022-09-25T00:00:04.421Z,58.59
2022-09-25T04:02:54.757Z,56.83
2022-09-25T04:05:24.138Z,56.91
2022-09-25T04:07:53.503Z,56.79
2022-09-25T04:10:22.603Z,56.90
2022-09-25T04:12:55.189Z,56.81
2022-09-25T04:15:24.683Z,56.86
2022-09-25T04:17:53.765Z,56.71
2022-09-25T04:20:22.710Z,56.75
2022-09-25T04:22:51.852Z,56.81
2022-09-25T04:25:26.223Z,56.72
2022-09-25T04:27:56.827Z,56.65
2022-09-25T04:30:27.808Z,56.71
2022-09-25T04:33:15.635Z,56.75
2022-09-25T04:35:45.260Z,56.73
2022-09-25T04:38:14.405Z,56.75
2022-09-25T04:40:46.739Z,56.84
2022-09-25T04:43:15.925Z,56.85
2022-09-25T04:45:47.952Z,56.75
2022-09-25T04:48:17.199Z,56.83
2022-09-25T04:50:52.357Z,56.64
2022-09-25T04:53:22.084Z,56.66
2022-09-25T04:55:52.366Z,56.86
2022-09-25T04:58:22.578Z,56.78
2022-09-25T05:00:52.028Z,56.84
2022-09-25T05:03:21.416Z,56.75
2022-09-25T05:05:50.990Z,56.95
2022-09-25T05:08:20.745Z,56.81
2022-09-25T05:10:49.846Z,56.76
2022-09-25T05:13:19.269Z,56.80
2022-09-25T05:15:48.558Z,56.81
2022-09-25T05:18:23.753Z,56.71
2022-09-25T05:20:57.342Z,56.72
2022-09-25T05:23:26.615Z,56.75
2022-09-25T05:25:58.871Z,56.79
2022-09-25T05:28:32.132Z,56.77
2022-09-25T05:31:06.006Z,56.64
2022-09-25T05:33:36.208Z,56.78
2022-09-25T05:36:07.552Z,56.84
2022-09-25T05:38:41.296Z,56.91
2022-09-25T05:41:11.454Z,56.59
2022-09-25T05:43:43.595Z,56.70
2022-09-25T05:46:12.907Z,56.75
2022-09-25T05:48:41.924Z,56.55
2022-09-25T05:51:11.796Z,56.62
2022-09-25T05:53:41.327Z,56.61
2022-09-25T05:56:10.953Z,56.47
2022-09-25T05:58:39.961Z,56.71
2022-09-25T06:01:08.445Z,56.49
2022-09-25T06:03:37.212Z,56.74
2022-09-25T06:06:06.966Z,56.69
2022-09-25T06:08:36.044Z,56.71
2022-09-25T06:11:06.232Z,56.56
2022-09-25T06:13:37.211Z,56.68
2022-09-25T06:16:13.834Z,56.62
2022-09-25T06:18:42.930Z,56.58
2022-09-25T06:21:12.464Z,56.60
2022-09-25T06:23:44.520Z,56.65
2022-09-25T06:26:15.059Z,56.53
2022-09-25T06:28:43.769Z,56.48
2022-09-25T06:31:12.677Z,56.43
2022-09-25T06:33:42.762Z,56.47
2022-09-25T06:36:11.226Z,56.36
2022-09-25T06:38:40.009Z,56.37
2022-09-25T06:41:09.399Z,56.43
2022-09-25T06:43:38.128Z,56.61
2022-09-25T06:46:07.451Z,56.34
2022-09-25T06:48:36.054Z,56.69
2022-09-25T06:51:05.460Z,56.44
2022-09-25T06:53:35.693Z,56.41
2022-09-25T06:56:05.112Z,56.38
2022-09-25T06:58:36.707Z,56.36
2022-09-25T07:01:11.288Z,56.41
2022-09-25T07:03:47.892Z,56.49
2022-09-25T07:06:21.341Z,56.42
2022-09-25T07:08:52.621Z,56.52
2022-09-25T07:11:28.795Z,56.48
2022-09-25T07:13:58.358Z,56.53
2022-09-25T07:16:30.522Z,56.42
2022-09-25T07:19:04.971Z,56.37
2022-09-25T07:21:34.232Z,56.32
2022-09-25T07:24:03.732Z,56.47
2022-09-25T07:26:36.216Z,56.29
2022-09-25T07:29:09.532Z,56.21
2022-09-25T07:31:38.911Z,56.27
2022-09-25T07:34:12.264Z,56.22
2022-09-25T07:36:44.395Z,56.17
2022-09-25T07:39:18.162Z,56.14
2022-09-25T07:41:48.269Z,56.16
2022-09-25T07:44:28.650Z,56.32
2022-09-25T07:47:01.399Z,56.16
2022-09-25T07:49:32.396Z,56.07
2022-09-25T07:52:07.317Z,56.16
2022-09-25T07:54:37.968Z,56.04
2022-09-25T07:57:15.987Z,56.02
2022-09-25T07:59:46.126Z,55.89
2022-09-25T08:02:15.409Z,55.98
2022-09-25T08:04:44.859Z,55.87
2022-09-25T08:07:14.224Z,55.84
2022-09-25T08:09:43.595Z,55.90
2022-09-25T08:12:13.877Z,55.92
2022-09-25T08:14:45.553Z,55.85
2022-09-25T08:17:14.061Z,55.97
2022-09-25T08:19:43.161Z,55.75
2022-09-25T08:22:13.619Z,55.51
2022-09-25T08:24:42.425Z,55.71
2022-09-25T08:27:10.985Z,55.49
2022-09-25T08:29:40.995Z,55.58
2022-09-25T08:32:10.716Z,55.35
2022-09-25T08:34:41.361Z,55.47
2022-09-25T08:37:11.317Z,55.20
2022-09-25T08:39:40.588Z,55.30
2022-09-25T08:42:34.289Z,55.41
2022-09-25T08:45:27.669Z,55.33
2022-09-25T08:48:18.702Z,55.27
2022-09-25T08:50:49.967Z,55.03
2022-09-25T08:53:25.575Z,55.06
2022-09-25T08:56:12.780Z,55.11
2022-09-25T08:58:52.656Z,55.19
2022-09-25T09:01:32.763Z,55.07
2022-09-25T09:04:22.547Z,54.85
2022-09-25T09:07:25.069Z,54.75
2022-09-25T09:09:56.313Z,54.69
2022-09-25T09:12:38.487Z,54.75
2022-09-25T09:15:29.529Z,54.64
2022-09-25T09:18:02.019Z,54.31
2022-09-25T09:20:44.908Z,54.63
2022-09-25T09:23:19.397Z,54.52
2022-09-25T09:26:17.857Z,54.49
2022-09-25T09:29:04.852Z,54.46
2022-09-25T09:31:57.449Z,54.62
2022-09-25T09:35:04.603Z,54.30
2022-09-25T09:37:46.477Z,54.33
2022-09-25T09:40:59.004Z,54.14
2022-09-25T09:43:38.505Z,54.03
2022-09-25T09:46:25.325Z,54.11
2022-09-25T09:49:19.432Z,54.18
2022-09-25T09:52:12.055Z,54.19
2022-09-25T09:54:56.972Z,54.31
2022-09-25T09:57:33.734Z,54.14
2022-09-25T10:00:15.879Z,54.27
2022-09-25T10:02:52.285Z,54.11
2022-09-25T10:05:40.620Z,53.76
2022-09-25T10:08:13.573Z,53.77
2022-09-25T10:10:46.287Z,53.82
2022-09-25T10:13:21.260Z,53.57
2022-09-25T10:15:56.829Z,53.69
2022-09-25T10:18:32.475Z,53.55
2022-09-25T10:21:19.544Z,53.58
2022-09-25T10:23:56.620Z,53.44
2022-09-25T10:26:38.608Z,53.14
2022-09-25T10:29:11.225Z,53.09
2022-09-25T10:31:42.303Z,52.81
2022-09-25T10:34:14.576Z,52.99
2022-09-25T10:36:50.392Z,53.04
2022-09-25T10:39:50.566Z,52.95
2022-09-25T10:42:42.379Z,52.87
2022-09-25T10:45:31.841Z,52.78
2022-09-25T10:48:20.072Z,52.77
2022-09-25T10:51:08.849Z,52.64
2022-09-25T10:53:38.089Z,52.58
2022-09-25T10:56:13.420Z,52.57
2022-09-25T10:58:48.231Z,52.39
2022-09-25T11:01:18.941Z,52.53
2022-09-25T11:03:55.817Z,52.38
2022-09-25T11:06:30.976Z,52.31
2022-09-25T11:09:24.221Z,52.20
2022-09-25T11:12:05.125Z,52.14
2022-09-25T11:14:37.230Z,52.03
2022-09-25T11:17:42.961Z,51.96
2022-09-25T11:20:18.396Z,51.96
2022-09-25T11:22:58.750Z,51.57
2022-09-25T11:25:34.160Z,51.51
2022-09-25T11:28:14.221Z,51.42
2022-09-25T11:31:03.045Z,51.15
2022-09-25T11:33:42.862Z,51.27
2022-09-25T11:36:39.427Z,51.20
2022-09-25T11:39:43.897Z,50.91
2022-09-25T11:42:32.113Z,51.04
2022-09-25T11:45:11.214Z,51.02
2022-09-25T11:47:54.386Z,50.77
2022-09-25T11:50:36.376Z,50.74
2022-09-25T11:53:33.919Z,50.68
2022-09-25T11:56:32.796Z,50.73
2022-09-25T11:59:42.709Z,50.57
2022-09-25T12:02:30.241Z,50.15
2022-09-25T12:05:22.858Z,50.27
2022-09-25T12:08:10.445Z,50.35
2022-09-25T12:10:47.331Z,50.15
2022-09-25T12:13:44.851Z,50.02
2022-09-25T12:16:40.639Z,50.06
2022-09-25T12:19:31.760Z,49.72
2022-09-25T12:22:27.957Z,49.67
2022-09-25T12:25:09.844Z,49.64
2022-09-25T12:27:48.467Z,49.55
2022-09-25T12:30:22.121Z,49.56
2022-09-25T12:32:54.205Z,49.44
2022-09-25T12:36:09.698Z,49.27
2022-09-25T12:38:56.408Z,49.15
2022-09-25T12:42:05.749Z,49.27
2022-09-25T12:44:54.322Z,49.16
2022-09-25T12:47:38.108Z,49.15
2022-09-25T12:50:17.596Z,49.04
2022-09-25T12:52:53.086Z,49.11
2022-09-25T12:55:32.427Z,49.00
2022-09-25T12:58:19.063Z,48.85
2022-09-25T13:00:56.891Z,48.88
2022-09-25T13:03:36.464Z,48.74
2022-09-25T13:06:15.097Z,48.62
2022-09-25T13:09:02.497Z,48.70
2022-09-25T13:11:51.640Z,48.58
2022-09-25T13:14:29.486Z,48.48
2022-09-25T13:16:58.872Z,48.47
2022-09-25T13:19:32.415Z,48.44
2022-09-25T13:22:11.007Z,48.42
2022-09-25T13:24:58.566Z,48.38
2022-09-25T13:27:38.624Z,48.53
2022-09-25T13:30:20.628Z,48.37
2022-09-25T13:32:52.341Z,48.36
2022-09-25T13:35:25.037Z,48.31
2022-09-25T13:37:57.725Z,48.12
2022-09-25T13:40:45.821Z,48.20
2022-09-25T13:43:42.194Z,48.35
2022-09-25T13:46:22.664Z,48.21
2022-09-25T13:48:53.472Z,48.17
2022-09-25T13:51:22.021Z,48.00
2022-09-25T13:54:00.920Z,48.24
2022-09-25T13:56:48.899Z,48.09
2022-09-25T13:59:19.907Z,48.23
2022-09-25T14:01:55.612Z,48.29
2022-09-25T14:04:49.462Z,48.28
2022-09-25T14:07:26.167Z,48.25
2022-09-25T14:09:58.194Z,48.23
2022-09-25T14:12:56.823Z,48.13
2022-09-25T14:15:37.689Z,48.08
2022-09-25T14:18:27.381Z,48.14
2022-09-25T14:21:01.573Z,48.14
2022-09-25T14:23:33.764Z,48.04
2022-09-25T14:26:09.536Z,48.22
2022-09-25T14:28:46.300Z,48.19
2022-09-25T14:31:44.443Z,48.26
2022-09-25T14:34:26.962Z,48.23
2022-09-25T14:37:18.574Z,48.19
2022-09-25T14:39:48.655Z,48.16
2022-09-25T14:42:57.336Z,48.25
2022-09-25T14:45:34.456Z,48.21
2022-09-25T14:48:10.881Z,48.21
2022-09-25T14:50:49.859Z,48.24
2022-09-25T14:53:33.787Z,48.16
2022-09-25T14:56:05.904Z,48.12
2022-09-25T14:58:37.899Z,48.11
2022-09-25T15:01:33.525Z,48.22
2022-09-25T15:04:09.791Z,48.30
2022-09-25T15:06:40.974Z,48.18
2022-09-25T15:09:31.206Z,48.19
2022-09-25T15:12:01.203Z,48.28
2022-09-25T15:14:29.689Z,48.26
2022-09-25T15:17:16.830Z,48.35
2022-09-25T15:19:46.266Z,48.38
2022-09-25T15:22:22.805Z,48.30
2022-09-25T15:24:56.271Z,48.49
2022-09-25T15:27:26.143Z,48.49
2022-09-25T15:29:57.266Z,48.54
2022-09-25T15:32:31.439Z,48.61
2022-09-25T15:35:06.863Z,48.93
2022-09-25T15:37:36.039Z,48.92
2022-09-25T15:40:31.407Z,49.01
2022-09-25T15:43:02.372Z,48.98
2022-09-25T15:45:55.427Z,49.28
2022-09-25T15:48:33.070Z,49.29
2022-09-25T15:51:22.875Z,49.44
2022-09-25T15:54:00.346Z,49.55
2022-09-25T15:56:45.834Z,49.73
2022-09-25T15:59:23.384Z,49.77
2022-09-25T16:02:12.457Z,49.95
2022-09-25T16:04:53.124Z,50.07
2022-09-25T16:07:25.165Z,50.01
2022-09-25T16:09:57.895Z,50.17
2022-09-25T16:12:27.358Z,50.29
2022-09-25T16:14:58.562Z,50.37
2022-09-25T16:17:42.110Z,50.50
2022-09-25T16:20:31.306Z,50.74
2022-09-25T16:23:05.185Z,50.57
2022-09-25T16:25:38.367Z,50.74
2022-09-25T16:28:20.246Z,50.78
2022-09-25T16:31:06.312Z,50.80
2022-09-25T16:33:39.224Z,50.90
2022-09-25T16:36:17.961Z,51.05
2022-09-25T16:39:13.064Z,51.03
2022-09-25T16:41:51.935Z,51.10
2022-09-25T16:44:48.358Z,51.25
2022-09-25T16:47:20.470Z,51.37
2022-09-25T16:49:50.120Z,51.52
2022-09-25T16:52:24.559Z,51.38
2022-09-25T16:54:57.401Z,51.41
2022-09-25T16:57:32.817Z,51.31
2022-09-25T17:00:02.040Z,51.43
2022-09-25T17:02:37.337Z,51.35
2022-09-25T17:05:19.897Z,51.22
2022-09-25T17:07:50.907Z,51.38
2022-09-25T17:10:26.928Z,51.42
2022-09-25T17:12:59.480Z,51.36
2022-09-25T17:15:35.016Z,51.32
2022-09-25T17:18:12.574Z,51.57
2022-09-25T17:20:41.741Z,51.38
2022-09-25T17:23:11.339Z,51.59
2022-09-25T17:26:01.044Z,51.41
2022-09-25T17:28:30.489Z,51.58
2022-09-25T17:31:01.330Z,51.84
2022-09-25T17:33:32.641Z,51.62
2022-09-25T17:36:04.714Z,51.56
2022-09-25T17:38:34.493Z,51.63
2022-09-25T17:41:15.245Z,51.67
2022-09-25T17:43:44.086Z,51.75
2022-09-25T17:46:16.895Z,51.78
2022-09-25T17:48:51.630Z,51.94
2022-09-25T17:51:26.495Z,52.01
2022-09-25T17:53:57.278Z,52.15
2022-09-25T17:56:30.933Z,52.12
2022-09-25T17:59:00.886Z,52.16
2022-09-25T18:01:36.740Z,52.12
2022-09-25T18:04:23.872Z,52.19
2022-09-25T18:06:53.165Z,52.38
2022-09-25T18:09:22.195Z,52.34
2022-09-25T18:11:52.149Z,52.37
2022-09-25T18:14:21.143Z,52.33
2022-09-25T18:16:49.939Z,52.24
2022-09-25T18:19:39.468Z,52.42
2022-09-25T18:22:20.641Z,52.70
2022-09-25T18:24:57.311Z,52.52
2022-09-25T18:27:33.575Z,52.69
2022-09-25T18:30:02.563Z,52.86
2022-09-25T18:32:33.768Z,52.94
2022-09-25T18:35:03.501Z,52.99
2022-09-25T18:37:32.163Z,53.08
2022-09-25T18:40:01.140Z,53.26
2022-09-25T18:42:30.343Z,53.27
2022-09-25T18:44:58.942Z,53.60
2022-09-25T18:47:27.941Z,53.64
2022-09-25T18:49:56.481Z,53.57
2022-09-25T18:52:25.255Z,53.53
2022-09-25T18:54:53.934Z,53.62
2022-09-25T18:57:22.639Z,53.81
2022-09-25T18:59:51.054Z,53.80
2022-09-25T19:02:23.299Z,53.93
2022-09-25T19:04:55.417Z,53.95
2022-09-25T19:07:26.957Z,54.00
2022-09-25T19:09:58.656Z,54.16
2022-09-25T19:12:28.158Z,54.29
2022-09-25T19:14:57.307Z,54.41
2022-09-25T19:17:26.966Z,54.30
2022-09-25T19:19:55.561Z,54.50
2022-09-25T19:22:25.203Z,54.56
2022-09-25T19:24:54.980Z,54.52
2022-09-25T19:27:26.211Z,54.73
2022-09-25T19:29:55.498Z,54.79
2022-09-25T19:32:25.453Z,54.85
2022-09-25T19:34:55.179Z,54.82
2022-09-25T19:37:28.391Z,54.76
2022-09-25T19:40:17.624Z,54.96
2022-09-25T19:42:48.239Z,54.79
2022-09-25T19:45:18.940Z,54.99
2022-09-25T19:47:47.965Z,54.95
2022-09-25T19:50:19.030Z,55.07
2022-09-25T19:52:51.098Z,55.18
2022-09-25T19:55:20.038Z,55.18
2022-09-25T19:57:49.174Z,55.30
2022-09-25T20:00:18.598Z,55.30
2022-09-25T20:02:48.215Z,55.42
2022-09-25T20:05:18.515Z,55.51
2022-09-25T20:07:47.954Z,55.51
2022-09-25T20:10:17.385Z,55.67
2022-09-25T20:12:46.549Z,55.70
2022-09-25T20:15:15.271Z,55.64
2022-09-25T20:17:45.148Z,55.67
2022-09-25T20:20:15.823Z,55.78
2022-09-25T20:22:45.340Z,55.64
2022-09-25T20:25:14.011Z,55.63
2022-09-25T20:27:43.536Z,55.91
2022-09-25T20:30:13.855Z,55.97
2022-09-25T20:32:43.106Z,55.86
2022-09-25T20:35:12.838Z,56.16
2022-09-25T20:37:47.076Z,56.14
2022-09-25T20:40:16.453Z,56.07
2022-09-25T20:42:45.865Z,56.24
2022-09-25T20:45:15.105Z,56.28
2022-09-25T20:47:46.462Z,56.27
2022-09-25T20:50:16.540Z,56.37
2022-09-25T20:52:45.866Z,56.33
2022-09-25T20:55:15.067Z,56.41
2022-09-25T20:57:44.567Z,56.52
2022-09-25T21:00:18.381Z,56.49
2022-09-25T21:02:49.158Z,56.59
2022-09-25T21:05:18.400Z,56.59
2022-09-25T21:07:47.742Z,56.54
2022-09-25T21:10:16.872Z,56.58
2022-09-25T21:12:46.164Z,56.63
2022-09-25T21:15:15.745Z,56.81
2022-09-25T21:17:45.190Z,56.83
2022-09-25T21:20:14.645Z,56.76
2022-09-25T21:22:44.026Z,57.05
2022-09-25T21:25:13.313Z,57.00
2022-09-25T21:27:42.541Z,56.99
2022-09-25T21:30:12.260Z,57.01
2022-09-25T21:32:42.086Z,56.99
2022-09-25T21:35:11.843Z,57.08
2022-09-25T21:37:41.086Z,57.00
2022-09-25T21:40:10.351Z,57.04
2022-09-25T21:42:39.761Z,57.22
2022-09-25T21:45:09.939Z,57.29
2022-09-25T21:47:39.188Z,57.16
2022-09-25T21:50:08.833Z,57.15
2022-09-25T21:52:40.443Z,57.08
2022-09-25T21:55:10.810Z,57.31
2022-09-25T21:57:39.996Z,57.28
2022-09-25T22:00:10.831Z,57.42
2022-09-25T22:02:41.064Z,57.36
2022-09-25T22:05:12.574Z,57.41
2022-09-25T22:07:43.078Z,57.53
2022-09-25T22:10:12.522Z,57.68
2022-09-25T22:12:42.167Z,57.68
2022-09-25T22:15:13.427Z,57.42
2022-09-25T22:17:42.542Z,57.55
2022-09-25T22:20:12.597Z,57.56
2022-09-25T22:22:41.857Z,57.54
2022-09-25T22:25:11.161Z,57.73
2022-09-25T22:27:40.418Z,57.69
2022-09-25T22:30:10.651Z,57.62
2022-09-25T22:32:39.452Z,57.66
2022-09-25T22:35:09.181Z,57.60
2022-09-25T22:37:38.444Z,57.80
2022-09-25T22:40:08.474Z,58.03
2022-09-25T22:42:37.747Z,58.03
2022-09-25T22:45:07.568Z,57.90
2022-09-25T22:47:36.848Z,57.88
2022-09-25T22:50:06.762Z,57.73
2022-09-25T22:52:36.694Z,57.99
2022-09-25T22:55:06.056Z,57.84
2022-09-25T22:57:39.487Z,57.86
2022-09-25T23:00:10.637Z,58.18
